createdAt,value
2022-09-30T00:03:19.213Z,12
2022-09-30T00:09:19.335Z,11
2022-09-30T00:15:19.099Z,12
2022-09-30T00:21:19.162Z,10
2022-09-30T00:27:19.090Z,8
2022-09-30T00:33:19.120Z,9
2022-09-30T00:39:19.301Z,8
2022-09-30T00:45:19.109Z,11
2022-09-30T00:51:19.092Z,11
2022-09-30T00:57:19.114Z,10
2022-09-30T01:03:19.097Z,10
2022-09-30T01:09:19.228Z,10
2022-09-30T01:15:19.122Z,10
2022-09-30T01:21:19.095Z,12
2022-09-30T01:27:19.124Z,10
2022-09-30T01:33:19.141Z,12
2022-09-30T01:39:19.075Z,15
2022-09-30T01:45:19.097Z,10
2022-09-30T01:51:19.092Z,12
2022-09-30T01:57:19.094Z,12
2022-09-30T02:03:19.075Z,10
2022-09-30T02:09:19.395Z,12
2022-09-30T02:15:19.066Z,14
2022-09-30T02:21:19.159Z,13
2022-09-30T02:27:19.095Z,13
2022-09-30T02:33:19.117Z,12
2022-09-30T02:39:19.086Z,11
2022-09-30T02:45:19.133Z,12
2022-09-30T02:51:19.087Z,14
2022-09-30T02:57:19.130Z,12
2022-09-30T03:03:19.171Z,13
2022-09-30T03:09:19.314Z,12
2022-09-30T03:15:19.124Z,11
2022-09-30T03:21:19.156Z,11
2022-09-30T03:27:19.154Z,10
2022-09-30T03:33:19.118Z,13
2022-09-30T03:39:19.252Z,11
2022-09-30T03:45:19.134Z,10
2022-09-30T03:51:19.168Z,13
2022-09-30T03:57:19.158Z,13
2022-09-30T04:03:19.202Z,13
2022-09-30T04:09:19.197Z,12
2022-09-30T04:15:19.157Z,14
2022-09-30T04:21:19.124Z,15
2022-09-30T04:27:19.114Z,14
2022-09-30T04:33:19.171Z,13
2022-09-30T04:39:19.133Z,13
2022-09-30T04:45:19.112Z,14
2022-09-30T04:51:19.156Z,13
2022-09-30T04:57:19.106Z,14
2022-09-30T05:03:19.148Z,18
2022-09-30T05:09:19.253Z,19
2022-09-30T05:15:19.131Z,14
2022-09-30T05:21:19.149Z,15
2022-09-30T05:27:19.152Z,13
2022-09-30T05:33:19.128Z,13
2022-09-30T05:39:19.111Z,15
2022-09-30T05:45:19.224Z,15
2022-09-30T05:51:19.132Z,13
2022-09-30T05:57:19.116Z,15
2022-09-30T06:03:19.157Z,14
2022-09-30T06:09:19.204Z,15
2022-09-30T06:15:19.120Z,11
2022-09-30T06:21:19.120Z,13
2022-09-30T06:27:19.116Z,12
2022-09-30T06:33:19.106Z,7
2022-09-30T06:39:19.158Z,7
2022-09-30T06:45:29.716Z,15
2022-09-30T06:51:19.118Z,8
2022-09-30T06:57:19.141Z,6
2022-09-30T07:03:19.138Z,6
2022-09-30T07:09:19.257Z,6
2022-09-30T07:15:19.175Z,6
2022-09-30T07:21:19.110Z,6
2022-09-30T07:27:19.128Z,5
2022-09-30T07:33:19.164Z,7
2022-09-30T07:39:19.145Z,5
2022-09-30T07:45:19.141Z,5
2022-09-30T07:51:19.163Z,5
2022-09-30T07:57:19.123Z,6
2022-09-30T08:03:19.134Z,5
2022-09-30T08:09:19.258Z,6
2022-09-30T08:15:19.142Z,6
2022-09-30T08:21:19.123Z,5
2022-09-30T08:27:19.296Z,6
2022-09-30T08:33:19.140Z,7
2022-09-30T08:39:19.136Z,4
2022-09-30T08:45:19.190Z,7
2022-09-30T08:51:19.153Z,5
2022-09-30T08:57:19.155Z,5
2022-09-30T09:03:19.160Z,6
2022-09-30T09:09:19.244Z,4
2022-09-30T09:15:19.188Z,5
2022-09-30T09:21:19.209Z,5
2022-09-30T09:27:19.276Z,4
2022-09-30T09:33:19.157Z,3
2022-09-30T09:39:19.298Z,5
2022-09-30T09:45:19.148Z,5
2022-09-30T09:51:19.174Z,3
2022-09-30T09:57:19.198Z,4
2022-09-30T10:03:19.156Z,3
2022-09-30T10:09:19.240Z,4
2022-09-30T10:15:19.190Z,4
2022-09-30T10:21:19.198Z,5
2022-09-30T10:27:19.223Z,5
2022-09-30T10:33:19.181Z,8
2022-09-30T10:39:19.192Z,7
2022-09-30T10:45:19.222Z,5
2022-09-30T10:51:19.227Z,9
2022-09-30T10:57:19.193Z,4
2022-09-30T11:03:19.270Z,6
2022-09-30T11:09:19.216Z,5
2022-09-30T11:15:19.207Z,3
2022-09-30T11:21:19.183Z,3
2022-09-30T11:27:19.207Z,5
2022-09-30T11:33:19.226Z,3
2022-09-30T11:39:19.222Z,3
2022-09-30T11:45:19.205Z,7
2022-09-30T11:51:19.199Z,3
2022-09-30T11:57:19.207Z,3
2022-09-30T12:03:19.279Z,2
2022-09-30T12:09:19.224Z,3
2022-09-30T12:15:19.191Z,3
2022-09-30T12:21:19.239Z,2
2022-09-30T12:27:19.300Z,4
2022-09-30T12:33:19.204Z,3
2022-09-30T12:39:19.209Z,2
2022-09-30T12:45:19.231Z,2
2022-09-30T12:51:19.218Z,2
2022-09-30T12:57:19.219Z,3
2022-09-30T13:03:19.237Z,2
2022-09-30T13:09:19.215Z,2
2022-09-30T13:15:19.241Z,2
2022-09-30T13:21:19.218Z,3
2022-09-30T13:27:19.238Z,3
2022-09-30T13:33:19.253Z,3
2022-09-30T13:39:19.224Z,2
2022-09-30T13:45:19.221Z,3
2022-09-30T13:51:19.357Z,3
2022-09-30T13:57:19.232Z,2
2022-09-30T14:03:19.279Z,3
2022-09-30T14:09:19.284Z,2
2022-09-30T14:15:19.198Z,2
2022-09-30T14:21:19.241Z,3
2022-09-30T14:27:19.256Z,7
2022-09-30T14:33:19.201Z,3
2022-09-30T14:39:19.222Z,3
2022-09-30T14:45:19.250Z,5
2022-09-30T14:51:23.528Z,4
2022-09-30T14:57:19.229Z,4
2022-09-30T15:03:19.258Z,3
2022-09-30T15:09:19.221Z,19
2022-09-30T15:15:19.235Z,3
2022-09-30T15:21:19.264Z,5
2022-09-30T15:27:19.242Z,2
2022-09-30T15:33:19.207Z,3
2022-09-30T15:39:19.262Z,4
2022-09-30T15:45:19.209Z,6
2022-09-30T15:51:19.246Z,4
2022-09-30T15:57:19.252Z,3
2022-09-30T16:03:19.304Z,3
2022-09-30T16:09:19.259Z,2
2022-09-30T16:15:19.359Z,2
2022-09-30T16:21:19.231Z,3
2022-09-30T16:27:19.244Z,7
2022-09-30T16:33:19.274Z,3
2022-09-30T16:39:19.250Z,3
2022-09-30T16:45:19.248Z,5
2022-09-30T16:51:19.285Z,4
2022-09-30T16:57:19.245Z,7
2022-09-30T17:03:19.252Z,2
2022-09-30T17:09:19.239Z,4
2022-09-30T17:15:19.251Z,4
2022-09-30T17:21:19.378Z,2
2022-09-30T17:27:19.269Z,3
2022-09-30T17:33:19.254Z,2
2022-09-30T17:39:19.242Z,3
2022-09-30T17:45:19.271Z,3
2022-09-30T17:51:19.278Z,5
2022-09-30T17:57:19.254Z,3
2022-09-30T18:03:19.261Z,4
2022-09-30T18:09:19.230Z,4
2022-09-30T18:15:19.225Z,5
2022-09-30T18:21:19.294Z,5
2022-09-30T18:27:19.251Z,4
2022-09-30T18:33:19.237Z,4
2022-09-30T18:39:19.287Z,5
2022-09-30T18:45:19.265Z,3
2022-09-30T18:51:19.294Z,5
2022-09-30T18:57:19.280Z,4
2022-09-30T19:03:19.259Z,4
2022-09-30T19:09:19.281Z,4
2022-09-30T19:15:19.325Z,8
2022-09-30T19:21:19.255Z,4
2022-09-30T19:27:19.261Z,6
2022-09-30T19:33:19.257Z,4
2022-09-30T19:39:19.262Z,6
2022-09-30T19:45:22.716Z,6
2022-09-30T19:51:19.271Z,6
2022-09-30T19:57:19.242Z,4
2022-09-30T20:03:19.239Z,5
2022-09-30T20:09:19.310Z,6
2022-09-30T20:15:19.256Z,6
2022-09-30T20:21:19.248Z,4
2022-09-30T20:27:19.263Z,4
2022-09-30T20:33:19.269Z,4
2022-09-30T20:39:19.247Z,4
2022-09-30T20:45:19.266Z,6
2022-09-30T20:51:19.263Z,5
2022-09-30T20:57:19.234Z,6
2022-09-30T21:03:19.259Z,5
2022-09-30T21:09:19.232Z,5
2022-09-30T21:15:19.232Z,6
2022-09-30T21:21:19.267Z,5
2022-09-30T21:27:19.288Z,4
2022-09-30T21:33:19.252Z,5
2022-09-30T21:39:19.271Z,4
2022-09-30T21:45:19.249Z,4
2022-09-30T21:51:19.244Z,6
2022-09-30T21:57:19.270Z,6
2022-09-30T22:03:19.268Z,5
2022-09-30T22:09:19.242Z,7
2022-09-30T22:15:19.274Z,6
2022-09-30T22:21:19.248Z,10
2022-09-30T22:27:19.245Z,4
2022-09-30T22:33:19.270Z,4
2022-09-30T22:39:19.238Z,4
2022-09-30T22:45:19.257Z,5
2022-09-30T22:51:19.282Z,9
2022-09-30T22:57:19.244Z,9
2022-09-30T23:03:19.322Z,7
2022-09-30T23:09:19.268Z,6
2022-09-30T23:15:19.232Z,7
2022-09-30T23:21:19.258Z,6
2022-09-30T23:27:19.271Z,6
2022-09-30T23:33:19.244Z,5
2022-09-30T23:39:19.261Z,6
2022-09-30T23:45:19.277Z,5
2022-09-30T23:51:19.257Z,4
2022-09-30T23:57:19.271Z,5
